Flight Track Log - Related Links

Times and Time Zones

All times are in EDT time to prevent confusion due to time zone crossing. See the SWA3206 flight status page for this flight to view local times or setup timezone preferences in your user account.

Time Position Orientation Groundspeed Altitude Reporting Facility
EDT Latitude Longitude Course Direction KTS MPH feet Rate Location/Type
Tue 11:10:31 AM 39.8833 -75.2167 90° East 146 168 1,000  Level Philadelphia TRACON
Tue 11:11:20 AM 39.8833 -75.1833 90° East 176 203 2,300 2,532 Climbing Philadelphia TRACON
Tue 11:12:20 AM 39.9167 -75.1000 62° Northeast 207 238 5,600 2,450 Climbing Philadelphia TRACON
Tue 11:13:20 AM 39.9833 -75.1000 360° North 294 338 7,200 1,700 Climbing Philadelphia TRACON
Tue 11:14:20 AM 40.0500 -75.1333 339° North 291 335 9,000 947 Climbing Philadelphia TRACON
Tue 11:15:14 AM 40.1000 -75.2000 314° West 289 333 9,000 257 Level Philadelphia TRACON
Tue 11:16:40 AM 40.1481 -75.3411 294° West 302 348 9,600 1,027 Climbing New York Center
Tue 11:17:40 AM 40.1811 -75.4492 292° West 317 365 11,500 1,686 Climbing New York Center
Tue 11:18:41 AM 40.2347 -75.5725 300° West 362 417 13,000 1,780 Climbing New York Center
Tue 11:20:42 AM 40.3639 -75.7722 310° West 362 417 16,900 1,341 Climbing New York Center
Tue 11:21:40 AM 40.4128 -75.8467 311° West 315 362 17,000 51 Climbing New York Center
Tue 11:22:40 AM 40.4519 -75.9558 295° West 310 357 17,000  Level New York Center
Tue 11:23:42 AM 40.4661 -76.0553 281° West 304 350 17,000  Level New York Center
Tue 11:24:39 AM 40.4858 -76.1767 282° West 317 365 17,000 908 Level New York Center
Tue 11:25:41 AM 40.5003 -76.2681 282° West 317 365 18,800 2,341 Climbing New York Center
Tue 11:26:42 AM 40.5192 -76.3950 281° West 317 365 21,800 2,628 Climbing New York Center
Tue 11:27:42 AM 40.5733 -76.4869 308° West 317 365 24,100 2,288 Climbing New York Center
Tue 11:28:40 AM 40.6439 -76.5778 316° Northwest 333 383 26,300 2,339 Climbing New York Center
Tue 11:29:40 AM 40.7125 -76.6631 317° Northwest 333 383 28,700 1,934 Climbing New York Center
Tue 11:30:41 AM 40.7611 -76.7767 299° West 338 389 30,200 1,537 Climbing New York Center
Tue 11:31:41 AM 40.7036 -76.8839 235° Southwest 308 354 31,800 1,488 Climbing New York Center
Tue 11:32:42 AM 40.5950 -76.9236 196° South 304 350 33,200 1,119 Climbing New York Center
Tue 11:33:39 AM 40.5469 -77.0450 243° Southwest 350 403 34,000 756 Climbing New York Center
Tue 11:34:41 AM 40.5683 -77.1917 281° West 346 398 34,700 984 Climbing New York Center
Tue 11:35:41 AM 40.5950 -77.3500 283° West 377 434 36,000 488 Climbing New York Center
Tue 11:37:21 AM 40.6283 -77.5872 281° West 411 473 36,000  Level Cleveland Center
Tue 11:38:21 AM 40.6486 -77.7342 280° West 411 473 36,000  Level Cleveland Center
Tue 11:39:21 AM 40.6711 -77.8839 281° West 411 473 36,000  Level Cleveland Center
Tue 11:40:21 AM 40.6911 -78.0308 280° West 411 473 36,000  Level Cleveland Center
Tue 11:41:21 AM 40.7111 -78.1808 280° West 411 473 36,000  Level Cleveland Center
Tue 11:42:21 AM 40.7328 -78.3306 281° West 411 473 36,000  Level Cleveland Center
Tue 11:43:21 AM 40.7525 -78.4781 280° West 411 473 36,000  Level Cleveland Center
Tue 11:44:21 AM 40.7717 -78.6256 280° West 411 473 36,000  Level Cleveland Center
Tue 11:45:21 AM 40.7931 -78.7867 280° West 411 473 36,000  Level Cleveland Center
Tue 11:46:21 AM 40.8142 -78.9314 281° West 411 473 36,000  Level Cleveland Center
Tue 11:47:21 AM 40.8325 -79.0656 280° West 411 473 36,000  Level Cleveland Center
Tue 11:48:21 AM 40.8533 -79.2133 281° West 411 473 36,000  Level Cleveland Center
Tue 11:49:21 AM 40.8717 -79.3611 279° West 411 473 36,000  Level Cleveland Center
Tue 11:50:21 AM 40.8897 -79.5119 279° West 411 473 36,000  Level Cleveland Center
Tue 11:51:21 AM 40.9097 -79.6628 280° West 411 473 36,000  Level Cleveland Center
Tue 11:52:21 AM 40.9275 -79.8136 279° West 416 479 36,000  Level Cleveland Center
Tue 11:53:21 AM 40.9472 -79.9619 280° West 416 479 36,000  Level Cleveland Center
Tue 11:54:21 AM 40.9667 -80.1128 280° West 416 479 36,000  Level Cleveland Center
Tue 11:55:21 AM 40.9839 -80.2642 279° West 416 479 36,000  Level Cleveland Center
Tue 11:56:21 AM 41.0008 -80.4153 278° West 416 479 36,000  Level Cleveland Center
Tue 11:57:21 AM 41.0197 -80.5667 279° West 416 479 36,000  Level Cleveland Center
Tue 11:58:21 AM 41.0386 -80.7208 279° West 423 487 36,000  Level Cleveland Center
Tue 11:59:21 AM 41.0550 -80.8750 278° West 428 493 36,000  Level Cleveland Center
Tue 12:00:21 PM 41.0731 -81.0267 279° West 428 493 36,000  Level Cleveland Center
Tue 12:01:21 PM 41.0892 -81.1864 278° West 428 493 36,000  Level Cleveland Center
Tue 12:02:21 PM 41.1047 -81.3408 278° West 428 493 36,000  Level Cleveland Center
Tue 12:03:21 PM 41.1203 -81.4953 278° West 428 493 36,000  Level Cleveland Center
Tue 12:04:21 PM 41.1419 -81.6503 281° West 428 493 36,000  Level Cleveland Center
Tue 12:05:21 PM 41.1611 -81.8242 278° West 433 498 36,000 -250 Level Cleveland Center
Tue 12:06:21 PM 41.1758 -81.9789 277° West 433 498 35,500 -750 Descending Cleveland Center
Tue 12:07:21 PM 41.1906 -82.1394 277° West 433 498 34,500 -750 Descending Cleveland Center
Tue 12:08:21 PM 41.2053 -82.2858 278° West 439 505 34,000 -250 Descending Cleveland Center
Tue 12:09:21 PM 41.2214 -82.4439 278° West 444 511 34,000  Level Cleveland Center
Tue 12:10:21 PM 41.2375 -82.6044 278° West 444 511 34,000  Level Cleveland Center
Tue 12:11:21 PM 41.2533 -82.7650 278° West 444 511 34,000  Level Cleveland Center
Tue 12:12:21 PM 41.2689 -82.9231 278° West 444 511 34,000  Level Cleveland Center
Tue 12:13:21 PM 41.2842 -83.0867 277° West 449 517 34,000  Level Cleveland Center
Tue 12:14:21 PM 41.2989 -83.2614 276° West 444 511 34,000  Level Cleveland Center
Tue 12:15:21 PM 41.3139 -83.4250 277° West 444 511 34,000  Level Cleveland Center
Tue 12:16:21 PM 41.3286 -83.5833 277° West 444 511 34,000  Level Cleveland Center
Tue 12:17:21 PM 41.3450 -83.7475 278° West 444 511 34,000  Level Cleveland Center
Tue 12:18:21 PM 41.3572 -83.9086 276° West 444 511 34,000  Level Cleveland Center
Tue 12:20:20 PM 41.3867 -84.2122 277° West 437 503 34,000 -199 Level Chicago Center
Tue 12:21:22 PM 41.4000 -84.3722 276° West 436 502 33,400 -1,597 Descending Chicago Center
Tue 12:22:24 PM 41.4144 -84.5319 277° West 435 501 30,700 -1,645 Descending Chicago Center
Tue 12:23:26 PM 41.4264 -84.6939 276° West 439 505 30,000 -339 Descending Chicago Center
Tue 12:24:28 PM 41.4400 -84.8603 276° West 450 518 30,000 -97 Level Chicago Center
Tue 12:25:30 PM 41.4547 -85.0597 276° West 451 519 29,800 -629 Descending Chicago Center
Tue 12:26:32 PM 41.4667 -85.2236 276° West 444 511 28,700 -1,597 Descending Chicago Center
Tue 12:27:34 PM 41.4778 -85.3847 275° West 435 501 26,500 -2,177 Descending Chicago Center
Tue 12:28:36 PM 41.4897 -85.5406 276° West 420 483 24,200 -1,790 Descending Chicago Center
Tue 12:29:38 PM 41.5006 -85.6839 276° West 393 452 22,800 -1,548 Descending Chicago Center
Tue 12:30:40 PM 41.5103 -85.8233 275° West 377 434 21,000 -2,129 Descending Chicago Center
Tue 12:31:42 PM 41.5197 -85.9583 275° West 368 423 18,400 -2,468 Descending Chicago Center
Tue 12:32:44 PM 41.5253 -86.0933 273° West 366 421 15,900 -2,468 Descending Chicago Center
Tue 12:33:46 PM 41.5236 -86.2475 269° West 349 402 13,300 -1,984 Descending Chicago Center
Tue 12:34:48 PM 41.5225 -86.3683 269° West 329 379 11,800 -1,258 Descending Chicago Center
Tue 12:35:50 PM 41.5217 -86.4842 269° West 314 361 10,700 -823 Descending Chicago Center
Tue 12:36:52 PM 41.5214 -86.5922 270° West 293 337 10,100 -290 Descending Chicago Center
Tue 12:37:54 PM 41.5206 -86.7150 270° West 289 333 10,100 -532 Level Chicago Center
Tue 12:38:56 PM 41.5194 -86.8139 269° West 270 311 9,000 -1,016 Descending Chicago Center
Tue 12:39:58 PM 41.5181 -86.9114 269° West 265 305 8,000 -919 Descending Chicago Center
Tue 12:41:00 PM 41.5161 -87.0083 268° West 263 303 7,100 -968 Descending Chicago Center
Tue 12:42:02 PM 41.5439 -87.0978 293° West 266 306 6,000 -759 Descending Chicago Center
Tue 12:42:27 PM 41.5667 -87.1500 300° West 269 310 6,000 -71 Level Chicago TRACON
Tue 12:43:27 PM 41.6167 -87.2333 309° West 267 307 5,900 -424 Descending Chicago TRACON
Tue 12:44:06 PM 41.6308 -87.2808 292° West 267 307 5,300 -950 Descending Chicago Center
Tue 12:45:08 PM 41.6708 -87.3647 303° West 269 310 4,300 -629 Descending Chicago Center
Tue 12:46:10 PM 41.7086 -87.4453 302° West 265 305 4,000 -339 Descending Chicago Center
Tue 12:47:12 PM 41.7458 -87.5253 302° West 261 300 3,600 -581 Descending Chicago Center
Tue 12:48:14 PM 41.7869 -87.6131 302° West 248 285 2,800 -677 Descending Chicago Center
Tue 12:49:16 PM 41.8189 -87.6828 302° West 231 266 2,200 -774 Descending Chicago Center
Tue 12:50:18 PM 41.8103 -87.7222 254° West 180 207 1,200 -968 Descending Chicago Center
Tue 12:52:00 PM 41.7833 -87.7500 293° West  Level FlightAware Approximate

Login

Don't have an account? Register now (free) for customized features, flight alerts, and more!